createdAt,value
2018-12-08T00:02:08.654Z,3.07
2018-12-08T00:04:49.706Z,3.83
2018-12-08T00:07:40.840Z,2.93
2018-12-08T00:10:27.795Z,3.60
2018-12-08T00:13:16.448Z,3.27
2018-12-08T00:16:02.426Z,2.77
2018-12-08T00:18:41.858Z,2.60
2018-12-08T00:21:19.229Z,3.13
2018-12-08T00:27:03.960Z,2.70
2018-12-08T00:29:49.239Z,2.43
2018-12-08T00:32:34.950Z,3.40
2018-12-08T00:35:13.602Z,3.23
2018-12-08T00:37:58.724Z,2.70
2018-12-08T00:40:47.241Z,2.80
2018-12-08T00:43:24.707Z,2.80
2018-12-08T00:46:12.150Z,2.30
2018-12-08T00:48:47.858Z,2.20
2018-12-08T00:51:22.416Z,2.13
2018-12-08T00:57:01.608Z,2.93
2018-12-08T00:59:51.890Z,2.33
2018-12-08T01:02:37.504Z,2.10
2018-12-08T01:05:14.921Z,2.57
2018-12-08T01:07:53.690Z,2.40
2018-12-08T01:10:41.152Z,2.37
2018-12-08T01:13:29.776Z,1.90
2018-12-08T01:16:21.627Z,4.30
2018-12-08T01:19:09.233Z,2.77
2018-12-08T01:21:56.531Z,3.00
2018-12-08T01:24:40.477Z,2.20
2018-12-08T01:27:26.638Z,2.17
2018-12-08T01:30:18.073Z,2.37
2018-12-08T01:32:59.994Z,2.00
2018-12-08T01:35:48.048Z,2.63
2018-12-08T01:38:33.562Z,2.33
2018-12-08T01:41:14.457Z,2.37
2018-12-08T01:43:53.250Z,2.60
2018-12-08T01:46:28.520Z,3.20
2018-12-08T01:49:04.137Z,2.60
2018-12-08T01:51:50.807Z,2.70
2018-12-08T01:54:38.530Z,3.00
2018-12-08T01:57:24.268Z,2.37
2018-12-08T02:00:01.886Z,3.17
2018-12-08T02:02:46.927Z,2.00
2018-12-08T02:05:32.052Z,2.67
2018-12-08T02:08:18.652Z,2.13
2018-12-08T02:10:54.675Z,2.03
2018-12-08T02:13:42.171Z,2.60
2018-12-08T02:16:27.871Z,2.50
2018-12-08T02:19:09.560Z,2.60
2018-12-08T02:21:55.465Z,2.10
2018-12-08T02:24:41.230Z,3.07
2018-12-08T02:27:30.805Z,2.20
2018-12-08T02:30:08.683Z,2.67
2018-12-08T02:32:48.402Z,2.80
2018-12-08T02:35:33.349Z,2.60
2018-12-08T02:38:12.252Z,2.10
2018-12-08T02:41:01.925Z,2.73
2018-12-08T02:43:44.799Z,2.37
2018-12-08T02:49:41.463Z,2.00
2018-12-08T02:52:20.407Z,2.10
2018-12-08T02:55:05.848Z,2.40
2018-12-08T02:57:46.852Z,1.83
2018-12-08T03:00:28.849Z,2.87
2018-12-08T03:03:13.089Z,3.20
2018-12-08T03:05:59.114Z,2.40
2018-12-08T03:08:40.526Z,2.60
2018-12-08T03:11:25.789Z,2.37
2018-12-08T03:14:13.062Z,2.27
2018-12-08T03:16:58.558Z,2.13
2018-12-08T03:19:46.415Z,2.13
2018-12-08T03:22:32.027Z,2.13
2018-12-08T03:25:19.292Z,2.90
2018-12-08T03:28:05.322Z,2.23
2018-12-08T03:30:52.508Z,2.80
2018-12-08T03:33:39.583Z,2.20
2018-12-08T03:36:17.553Z,2.60
2018-12-08T03:42:02.181Z,3.13
2018-12-08T03:44:52.106Z,2.40
2018-12-08T03:47:27.278Z,2.13
2018-12-08T03:50:08.545Z,2.03
2018-12-08T03:52:50.408Z,2.03
2018-12-08T03:55:39.750Z,2.50
2018-12-08T03:58:22.050Z,2.00
2018-12-08T04:03:58.760Z,2.53
2018-12-08T04:06:34.338Z,2.30
2018-12-08T04:09:11.692Z,1.70
2018-12-08T04:12:00.723Z,2.30
2018-12-08T04:14:44.272Z,2.00
2018-12-08T04:17:25.838Z,2.13
2018-12-08T04:20:08.847Z,2.60
2018-12-08T04:22:56.639Z,2.80
2018-12-08T04:25:44.045Z,2.07
2018-12-08T04:28:19.166Z,2.80
2018-12-08T04:34:07.902Z,2.43
2018-12-08T04:36:54.143Z,3.40
2018-12-08T04:39:40.024Z,3.17
2018-12-08T04:45:28.626Z,2.70
2018-12-08T04:48:14.353Z,3.47
2018-12-08T04:50:55.779Z,2.53
2018-12-08T04:56:43.316Z,2.70
2018-12-08T04:59:24.526Z,3.20
2018-12-08T05:02:01.528Z,3.30
2018-12-08T05:04:43.391Z,3.00
2018-12-08T05:07:29.616Z,2.97
2018-12-08T05:10:14.795Z,3.60
2018-12-08T05:12:58.669Z,2.30
2018-12-08T05:15:35.575Z,3.17
2018-12-08T05:18:16.534Z,2.80
2018-12-08T05:20:55.177Z,2.93
2018-12-08T05:23:36.276Z,2.90
2018-12-08T05:26:23.377Z,2.90
2018-12-08T05:29:00.689Z,3.67
2018-12-08T05:31:46.190Z,3.63
2018-12-08T05:34:31.673Z,3.03
2018-12-08T05:37:09.134Z,3.37
2018-12-08T05:39:54.634Z,3.70
2018-12-08T05:42:36.179Z,2.70
2018-12-08T05:45:17.191Z,4.13
2018-12-08T05:50:48.570Z,3.57
2018-12-08T05:53:35.814Z,3.30
2018-12-08T05:56:22.841Z,3.00
2018-12-08T05:59:02.241Z,4.27
2018-12-08T06:01:39.017Z,3.67
2018-12-08T06:04:24.451Z,3.80
2018-12-08T06:07:03.169Z,3.97
2018-12-08T06:09:50.654Z,4.40
2018-12-08T06:12:34.330Z,4.13
2018-12-08T06:15:19.272Z,4.67
2018-12-08T06:17:58.779Z,5.00
2018-12-08T06:20:44.213Z,4.73
2018-12-08T06:23:32.584Z,4.43
2018-12-08T06:26:17.463Z,5.90
2018-12-08T06:28:56.742Z,5.23
2018-12-08T06:31:41.899Z,5.77
2018-12-08T06:34:20.741Z,5.00
2018-12-08T06:37:10.061Z,5.60
2018-12-08T06:39:47.259Z,5.60
2018-12-08T06:42:32.402Z,5.03
2018-12-08T06:45:12.133Z,5.23
2018-12-08T06:47:57.367Z,6.23
2018-12-08T06:50:44.494Z,5.73
2018-12-08T06:53:30.427Z,6.10
2018-12-08T06:56:07.900Z,5.37
2018-12-08T06:58:53.326Z,5.37
2018-12-08T07:01:39.007Z,5.60
2018-12-08T07:04:26.645Z,6.30
2018-12-08T07:06:59.951Z,4.77
2018-12-08T07:09:47.506Z,6.60
2018-12-08T07:12:33.053Z,5.33
2018-12-08T07:15:20.205Z,4.70
2018-12-08T07:17:57.128Z,4.63
2018-12-08T07:20:34.328Z,4.27
2018-12-08T07:23:21.729Z,4.60
2018-12-08T07:25:59.884Z,4.93
2018-12-08T07:28:46.966Z,5.47
2018-12-08T07:31:33.800Z,4.70
2018-12-08T07:34:13.450Z,4.57
2018-12-08T07:36:50.467Z,5.03
2018-12-08T07:42:32.583Z,3.80
2018-12-08T07:48:34.960Z,3.90
2018-12-08T07:51:14.716Z,4.53
2018-12-08T07:53:59.707Z,4.10
2018-12-08T07:56:46.774Z,4.43
2018-12-08T08:02:26.639Z,5.43
2018-12-08T08:05:14.704Z,4.77
2018-12-08T08:10:54.489Z,4.37
2018-12-08T08:13:33.757Z,5.33
2018-12-08T08:16:19.653Z,4.87
2018-12-08T08:19:07.176Z,5.30
2018-12-08T08:21:55.149Z,4.60
2018-12-08T08:24:33.862Z,5.83
2018-12-08T08:27:22.015Z,5.57
2018-12-08T08:33:08.819Z,5.20
2018-12-08T08:38:59.885Z,5.20
2018-12-08T08:41:45.782Z,5.13
2018-12-08T08:44:24.054Z,4.90
2018-12-08T08:47:05.528Z,3.90
2018-12-08T08:49:47.145Z,4.30
2018-12-08T08:52:22.066Z,3.60
2018-12-08T08:55:10.759Z,3.63
2018-12-08T08:57:51.767Z,3.43
2018-12-08T09:00:29.556Z,3.80
2018-12-08T09:03:10.432Z,4.03
2018-12-08T09:08:48.333Z,4.20
2018-12-08T09:11:25.897Z,3.80
2018-12-08T09:14:14.481Z,3.73
2018-12-08T09:17:02.602Z,3.63
2018-12-08T09:19:39.638Z,3.23
2018-12-08T09:22:20.916Z,3.90
2018-12-08T09:25:06.842Z,3.83
2018-12-08T09:30:48.186Z,3.60
2018-12-08T09:33:33.993Z,2.33
2018-12-08T09:39:15.312Z,4.00
2018-12-08T09:42:02.339Z,3.50
2018-12-08T09:44:50.440Z,2.77
2018-12-08T09:47:29.778Z,2.50
2018-12-08T09:50:14.957Z,2.70
2018-12-08T09:55:55.860Z,3.17
2018-12-08T09:58:38.922Z,2.37
2018-12-08T10:01:26.806Z,3.27
2018-12-08T10:04:08.575Z,3.10
2018-12-08T10:06:44.967Z,3.17
2018-12-08T10:09:23.557Z,3.30
2018-12-08T10:12:05.529Z,3.10
2018-12-08T10:14:54.615Z,2.50
2018-12-08T10:17:37.222Z,3.10
2018-12-08T10:20:28.140Z,2.77
2018-12-08T10:23:02.426Z,2.53
2018-12-08T10:25:49.936Z,2.87
2018-12-08T10:28:37.528Z,2.43
2018-12-08T10:31:16.016Z,2.83
2018-12-08T10:34:02.278Z,2.50
2018-12-08T10:36:37.709Z,3.00
2018-12-08T10:39:22.937Z,2.83
2018-12-08T10:42:10.085Z,2.00
2018-12-08T10:44:51.791Z,2.33
2018-12-08T10:47:31.624Z,2.57
2018-12-08T10:53:15.310Z,2.50
2018-12-08T10:56:00.252Z,2.50
2018-12-08T11:04:57.889Z,3.13
2018-12-08T11:07:45.320Z,2.87
2018-12-08T11:10:24.410Z,3.63
2018-12-08T11:13:03.008Z,3.20
2018-12-08T11:15:44.972Z,3.53
2018-12-08T11:18:36.745Z,3.50
2018-12-08T11:21:22.681Z,2.70
2018-12-08T11:24:08.788Z,2.70
2018-12-08T11:26:56.347Z,2.93
2018-12-08T11:29:42.358Z,2.50
2018-12-08T11:35:30.259Z,2.77
2018-12-08T11:41:08.310Z,2.50
2018-12-08T11:43:45.782Z,3.13
2018-12-08T11:46:35.635Z,3.57
2018-12-08T11:49:23.554Z,3.03
2018-12-08T11:52:05.588Z,2.37
2018-12-08T11:54:50.394Z,2.30
2018-12-08T11:57:36.563Z,2.00
2018-12-08T12:00:22.861Z,2.23
2018-12-08T12:03:05.073Z,2.13
2018-12-08T12:05:51.027Z,2.73
2018-12-08T12:08:35.958Z,2.50
2018-12-08T12:11:21.562Z,2.17
2018-12-08T12:23:25.087Z,2.30
2018-12-08T12:26:10.663Z,2.30
2018-12-08T12:28:52.045Z,2.23
2018-12-08T12:31:36.101Z,1.83
2018-12-08T12:34:15.800Z,2.33
2018-12-08T12:36:54.772Z,2.40
2018-12-08T12:39:42.075Z,2.60
2018-12-08T12:42:29.972Z,2.30
2018-12-08T12:45:17.051Z,2.00
2018-12-08T12:48:03.154Z,2.67
2018-12-08T12:50:52.083Z,2.50
2018-12-08T13:02:54.527Z,2.43
2018-12-08T13:05:34.474Z,3.80
2018-12-08T13:08:22.689Z,3.40
2018-12-08T13:11:08.101Z,3.03
2018-12-08T13:13:47.307Z,2.87
2018-12-08T13:16:34.491Z,2.63
2018-12-08T13:22:11.460Z,3.07
2018-12-08T13:24:56.794Z,3.80
2018-12-08T13:27:42.278Z,3.70
2018-12-08T13:33:23.180Z,3.23
2018-12-08T13:36:07.577Z,2.90
2018-12-08T13:38:52.894Z,2.57
2018-12-08T13:41:30.383Z,2.20
2018-12-08T13:47:22.007Z,2.30
2018-12-08T13:50:09.845Z,2.80
2018-12-08T13:52:58.661Z,2.90
2018-12-08T13:55:44.478Z,3.40
2018-12-08T13:58:34.439Z,3.07
2018-12-08T14:01:19.970Z,3.00
2018-12-08T14:07:19.806Z,2.70
2018-12-08T14:10:02.546Z,2.40
2018-12-08T14:12:50.710Z,2.10
2018-12-08T14:15:32.879Z,2.10
2018-12-08T14:18:12.308Z,1.70
2018-12-08T14:20:49.234Z,2.30
2018-12-08T14:26:28.839Z,2.00
2018-12-08T14:29:10.231Z,2.70
2018-12-08T14:31:56.326Z,2.10
2018-12-08T14:34:41.941Z,2.90
2018-12-08T14:37:27.165Z,2.50
2018-12-08T14:40:07.241Z,2.30
2018-12-08T14:45:58.439Z,2.13
2018-12-08T14:48:42.075Z,2.60
2018-12-08T14:51:27.827Z,2.17
2018-12-08T14:54:11.973Z,1.77
2018-12-08T14:56:57.496Z,1.90
2018-12-08T14:59:33.922Z,1.77
2018-12-08T15:02:11.090Z,2.13
2018-12-08T15:04:49.971Z,1.40
2018-12-08T15:07:27.283Z,1.70
2018-12-08T15:10:15.262Z,1.90
2018-12-08T15:13:00.349Z,2.20
2018-12-08T15:15:47.415Z,1.90
2018-12-08T15:21:24.392Z,1.97
2018-12-08T15:24:09.890Z,1.70
2018-12-08T15:26:55.441Z,2.50
2018-12-08T15:29:43.086Z,1.90
2018-12-08T15:32:29.289Z,2.00
2018-12-08T15:34:58.893Z,2.10
2018-12-08T15:37:40.374Z,1.43
2018-12-08T15:43:20.169Z,1.83
2018-12-08T15:46:01.744Z,2.20
2018-12-08T15:48:43.180Z,2.40
2018-12-08T15:54:25.400Z,1.90
2018-12-08T16:00:13.006Z,1.83
2018-12-08T16:05:43.793Z,2.20
2018-12-08T16:08:35.627Z,1.40
2018-12-08T16:11:21.009Z,1.93
2018-12-08T16:17:06.732Z,1.90
2018-12-08T16:19:53.503Z,1.57
2018-12-08T16:22:39.503Z,1.83
2018-12-08T16:25:25.343Z,1.50
2018-12-08T16:28:11.488Z,2.53
2018-12-08T16:31:01.140Z,1.57
2018-12-08T16:33:47.058Z,2.27
2018-12-08T16:36:34.790Z,1.63
2018-12-08T16:39:20.613Z,2.13
2018-12-08T16:42:03.841Z,2.47
2018-12-08T16:44:45.901Z,2.03
2018-12-08T16:47:27.312Z,1.80
2018-12-08T16:50:07.313Z,2.10
2018-12-08T16:52:53.635Z,2.30
2018-12-08T16:55:41.323Z,2.40
2018-12-08T16:58:29.912Z,1.87
2018-12-08T17:01:11.528Z,2.00
2018-12-08T17:03:49.931Z,1.87
2018-12-08T17:09:27.600Z,2.70
2018-12-08T17:12:10.068Z,2.03
2018-12-08T17:14:55.309Z,2.33
2018-12-08T17:17:43.655Z,1.50
2018-12-08T17:20:27.093Z,2.37
2018-12-08T17:23:08.723Z,2.07
2018-12-08T17:25:54.231Z,2.10
2018-12-08T17:28:30.576Z,2.57
2018-12-08T17:31:18.142Z,3.17
2018-12-08T17:34:03.422Z,2.80
2018-12-08T17:36:47.447Z,2.97
2018-12-08T17:42:41.725Z,2.50
2018-12-08T17:45:18.331Z,2.77
2018-12-08T17:47:53.270Z,2.60
2018-12-08T17:50:38.789Z,3.27
2018-12-08T17:53:20.726Z,3.40
2018-12-08T17:58:59.495Z,2.23
2018-12-08T18:01:45.296Z,2.33
2018-12-08T18:04:30.744Z,2.50
2018-12-08T18:10:21.575Z,3.33
2018-12-08T18:13:08.656Z,2.57
2018-12-08T18:19:09.890Z,2.97
2018-12-08T18:21:59.271Z,2.60
2018-12-08T18:24:51.446Z,2.47
2018-12-08T18:27:33.126Z,2.57
2018-12-08T18:30:21.495Z,2.47
2018-12-08T18:33:13.347Z,4.47
2018-12-08T18:35:59.792Z,2.97
2018-12-08T18:38:37.053Z,2.40
2018-12-08T18:41:25.194Z,2.53
2018-12-08T18:44:11.106Z,3.20
2018-12-08T18:46:57.187Z,3.23
2018-12-08T18:49:43.290Z,3.30
2018-12-08T18:52:29.288Z,3.70
2018-12-08T18:55:08.876Z,3.20
2018-12-08T18:57:56.699Z,3.10
2018-12-08T19:00:46.644Z,3.00
2018-12-08T19:03:34.291Z,4.00
2018-12-08T19:06:17.314Z,3.30
2018-12-08T19:08:59.654Z,2.90
2018-12-08T19:11:41.428Z,3.20
2018-12-08T19:14:20.973Z,3.20
2018-12-08T19:17:00.659Z,3.07
2018-12-08T19:19:37.647Z,2.90
2018-12-08T19:22:22.890Z,2.70
2018-12-08T19:25:02.637Z,3.00
2018-12-08T19:27:41.552Z,3.40
2018-12-08T19:30:22.252Z,3.07
2018-12-08T19:33:14.496Z,3.10
2018-12-08T19:35:58.222Z,2.70
2018-12-08T19:38:38.574Z,2.87
2018-12-08T19:41:24.353Z,2.27
2018-12-08T19:44:14.308Z,2.43
2018-12-08T19:46:51.703Z,3.23
2018-12-08T19:49:37.295Z,2.30
2018-12-08T19:52:25.162Z,2.07
2018-12-08T19:55:08.105Z,2.20
2018-12-08T19:57:53.138Z,2.37
2018-12-08T20:00:44.264Z,3.07
2018-12-08T20:03:30.189Z,2.47
2018-12-08T20:06:07.398Z,2.63
2018-12-08T20:08:53.585Z,2.97
2018-12-08T20:14:38.796Z,2.60
2018-12-08T20:17:23.890Z,2.80
2018-12-08T20:20:05.260Z,2.90
2018-12-08T20:22:42.848Z,3.60
2018-12-08T20:25:37.028Z,3.07
2018-12-08T20:28:14.412Z,2.83
2018-12-08T20:30:54.219Z,2.53
2018-12-08T20:33:45.379Z,2.70
2018-12-08T20:39:30.691Z,2.80
2018-12-08T20:42:16.431Z,2.70
2018-12-08T20:44:55.521Z,2.53
2018-12-08T20:47:41.323Z,3.60
2018-12-08T20:50:21.196Z,2.80
2018-12-08T20:53:04.598Z,3.83
2018-12-08T20:55:50.676Z,3.27
2018-12-08T20:58:34.543Z,3.40
2018-12-08T21:01:11.945Z,3.80
2018-12-08T21:03:57.241Z,3.47
2018-12-08T21:06:33.913Z,4.17
2018-12-08T21:09:15.164Z,4.10
2018-12-08T21:12:01.476Z,3.23
2018-12-08T21:14:39.268Z,3.17
2018-12-08T21:17:27.150Z,3.40
2018-12-08T21:20:14.426Z,2.93
2018-12-08T21:22:54.777Z,5.03
2018-12-08T21:25:36.076Z,2.90
2018-12-08T21:31:21.328Z,3.23
2018-12-08T21:34:05.094Z,4.00
2018-12-08T21:36:51.064Z,3.53
2018-12-08T21:39:32.045Z,3.40
2018-12-08T21:42:17.899Z,4.30
2018-12-08T21:44:58.299Z,2.60
2018-12-08T21:47:45.623Z,3.00
2018-12-08T21:50:31.483Z,2.90
2018-12-08T21:53:10.104Z,4.03
2018-12-08T21:55:51.331Z,3.40
2018-12-08T21:58:39.176Z,3.27
2018-12-08T22:01:31.020Z,3.37
2018-12-08T22:04:16.657Z,3.10
2018-12-08T22:06:54.068Z,3.23
2018-12-08T22:09:35.613Z,3.07
2018-12-08T22:12:08.507Z,3.70
2018-12-08T22:14:51.118Z,3.50
2018-12-08T22:17:30.008Z,4.10
2018-12-08T22:20:08.936Z,3.50
2018-12-08T22:22:47.831Z,4.07
2018-12-08T22:25:18.476Z,3.80
2018-12-08T22:28:00.163Z,4.47
2018-12-08T22:33:41.135Z,4.70
2018-12-08T22:36:20.674Z,4.70
2018-12-08T22:39:05.991Z,4.93
2018-12-08T22:41:55.743Z,4.20
2018-12-08T22:44:39.393Z,4.10
2018-12-08T22:47:25.043Z,5.40
2018-12-08T22:50:04.412Z,5.17
2018-12-08T22:52:41.928Z,5.97
2018-12-08T22:55:33.544Z,5.83
2018-12-08T22:58:25.265Z,5.40
2018-12-08T23:01:07.044Z,6.33
2018-12-08T23:03:48.742Z,6.80
2018-12-08T23:06:28.023Z,6.40
2018-12-08T23:09:11.812Z,5.93
2018-12-08T23:11:59.934Z,6.03
2018-12-08T23:14:37.889Z,6.40
2018-12-08T23:20:11.133Z,6.30
2018-12-08T23:22:56.300Z,5.43
2018-12-08T23:25:42.232Z,5.90
2018-12-08T23:28:23.741Z,5.93
2018-12-08T23:31:01.093Z,6.47
2018-12-08T23:33:48.571Z,5.70
2018-12-08T23:36:28.023Z,5.00
2018-12-08T23:39:07.120Z,4.93
2018-12-08T23:41:52.884Z,4.43
2018-12-08T23:44:40.183Z,4.10
2018-12-08T23:47:25.675Z,4.30
2018-12-08T23:50:17.658Z,3.73
2018-12-08T23:52:56.982Z,4.30
2018-12-08T23:55:42.851Z,4.20
2018-12-08T23:58:22.282Z,5.70
